createdAt,value
2019-04-21T00:27:18.586Z,23.12
2019-04-21T00:57:11.804Z,18.07
2019-04-21T01:27:06.541Z,18.70
2019-04-21T01:57:17.710Z,22.55
2019-04-21T02:27:31.758Z,19.37
2019-04-21T02:57:51.413Z,17.92
2019-04-21T04:28:28.814Z,28.92
2019-04-21T05:28:06.391Z,24.82
2019-04-21T05:58:14.621Z,18.32
2019-04-21T06:28:28.696Z,15.90
2019-04-21T06:58:26.290Z,11.78
2019-04-21T07:28:40.286Z,8.40
2019-04-21T07:58:51.999Z,6.92
2019-04-21T08:28:49.462Z,5.22
2019-04-21T08:59:00.188Z,3.85
2019-04-21T09:28:48.236Z,4.95
2019-04-21T09:58:49.206Z,4.42
2019-04-21T10:28:51.027Z,4.87
2019-04-21T10:58:54.156Z,5.83
2019-04-21T11:29:00.791Z,7.12
2019-04-21T11:59:03.891Z,6.47
2019-04-21T12:29:10.027Z,5.20
2019-04-21T12:59:12.672Z,5.35
2019-04-21T13:29:18.429Z,3.12
2019-04-21T13:59:22.481Z,3.90
2019-04-21T14:29:27.931Z,4.05
2019-04-21T14:59:31.086Z,6.45
2019-04-21T15:29:36.745Z,4.05
2019-04-21T15:59:40.195Z,5.75
2019-04-21T16:29:45.852Z,7.53
2019-04-21T16:59:48.655Z,5.55
2019-04-21T17:29:54.769Z,5.22
2019-04-21T18:00:25.849Z,5.15
2019-04-21T18:30:40.196Z,10.00
2019-04-21T19:00:44.175Z,9.78
2019-04-21T19:31:12.708Z,8.60
2019-04-21T20:00:57.397Z,14.78
2019-04-21T20:31:20.431Z,16.50
2019-04-21T21:31:33.205Z,33.33
2019-04-21T22:01:15.730Z,24.45
2019-04-21T22:31:24.554Z,22.58
2019-04-21T23:01:28.238Z,22.07
2019-04-21T23:31:51.639Z,18.32
